sensor_id;sensor_type;location;lat;lon;timestamp;P1;durP1;ratioP1;P2;durP2;ratioP2
80115;SDS011;69423;47.608;19.366;2023-05-16T00:00:21;8.33;;;8.33;;
80115;SDS011;69423;47.608;19.366;2023-05-16T00:00:54;8.23;;;8.23;;
80115;SDS011;69423;47.608;19.366;2023-05-16T00:01:27;8.20;;;8.20;;
80115;SDS011;69423;47.608;19.366;2023-05-16T00:01:59;8.03;;;8.03;;
80115;SDS011;69423;47.608;19.366;2023-05-16T00:02:30;8.13;;;8.13;;
80115;SDS011;69423;47.608;19.366;2023-05-16T00:03:01;8.23;;;8.23;;
80115;SDS011;69423;47.608;19.366;2023-05-16T00:03:32;8.07;;;8.07;;
80115;SDS011;69423;47.608;19.366;2023-05-16T00:04:03;8.00;;;8.00;;
80115;SDS011;69423;47.608;19.366;2023-05-16T00:04:35;7.57;;;7.57;;
80115;SDS011;69423;47.608;19.366;2023-05-16T00:05:06;7.90;;;7.90;;
80115;SDS011;69423;47.608;19.366;2023-05-16T00:05:37;8.27;;;8.27;;
80115;SDS011;69423;47.608;19.366;2023-05-16T00:06:08;8.10;;;8.10;;
80115;SDS011;69423;47.608;19.366;2023-05-16T00:06:39;8.30;;;8.30;;
80115;SDS011;69423;47.608;19.366;2023-05-16T00:07:10;8.43;;;8.43;;
80115;SDS011;69423;47.608;19.366;2023-05-16T00:07:42;7.87;;;7.87;;
80115;SDS011;69423;47.608;19.366;2023-05-16T00:08:14;8.03;;;8.03;;
80115;SDS011;69423;47.608;19.366;2023-05-16T00:08:45;7.87;;;7.87;;
80115;SDS011;69423;47.608;19.366;2023-05-16T00:09:16;7.83;;;7.83;;
80115;SDS011;69423;47.608;19.366;2023-05-16T00:09:47;7.60;;;7.60;;
80115;SDS011;69423;47.608;19.366;2023-05-16T00:10:18;7.63;;;7.63;;
80115;SDS011;69423;47.608;19.366;2023-05-16T00:10:49;7.67;;;7.67;;
80115;SDS011;69423;47.608;19.366;2023-05-16T00:11:20;7.13;;;7.13;;
80115;SDS011;69423;47.608;19.366;2023-05-16T00:11:51;7.97;;;7.97;;
80115;SDS011;69423;47.608;19.366;2023-05-16T00:12:22;7.97;;;7.97;;
80115;SDS011;69423;47.608;19.366;2023-05-16T00:12:52;8.00;;;8.00;;
80115;SDS011;69423;47.608;19.366;2023-05-16T00:13:24;8.17;;;8.17;;
80115;SDS011;69423;47.608;19.366;2023-05-16T00:13:55;7.33;;;7.33;;
80115;SDS011;69423;47.608;19.366;2023-05-16T00:14:25;7.00;;;7.00;;
80115;SDS011;69423;47.608;19.366;2023-05-16T00:14:57;7.30;;;7.30;;
80115;SDS011;69423;47.608;19.366;2023-05-16T00:15:28;7.23;;;7.23;;
80115;SDS011;69423;47.608;19.366;2023-05-16T00:16:00;6.97;;;6.97;;
80115;SDS011;69423;47.608;19.366;2023-05-16T00:16:31;7.07;;;7.07;;
80115;SDS011;69423;47.608;19.366;2023-05-16T00:17:02;6.43;;;6.43;;
80115;SDS011;69423;47.608;19.366;2023-05-16T00:17:40;6.53;;;6.53;;
80115;SDS011;69423;47.608;19.366;2023-05-16T00:18:16;6.50;;;6.50;;
80115;SDS011;69423;47.608;19.366;2023-05-16T00:18:47;5.97;;;5.97;;
80115;SDS011;69423;47.608;19.366;2023-05-16T00:19:19;5.73;;;5.73;;
80115;SDS011;69423;47.608;19.366;2023-05-16T00:19:49;5.57;;;5.57;;
80115;SDS011;69423;47.608;19.366;2023-05-16T00:20:28;5.83;;;5.83;;
80115;SDS011;69423;47.608;19.366;2023-05-16T00:20:59;5.73;;;5.73;;
80115;SDS011;69423;47.608;19.366;2023-05-16T00:21:31;5.43;;;5.43;;
80115;SDS011;69423;47.608;19.366;2023-05-16T00:22:02;5.33;;;5.33;;
80115;SDS011;69423;47.608;19.366;2023-05-16T00:22:33;5.50;;;5.50;;
80115;SDS011;69423;47.608;19.366;2023-05-16T00:23:04;5.47;;;5.47;;
80115;SDS011;69423;47.608;19.366;2023-05-16T00:23:35;5.53;;;5.53;;
80115;SDS011;69423;47.608;19.366;2023-05-16T00:24:06;5.47;;;5.47;;
80115;SDS011;69423;47.608;19.366;2023-05-16T00:24:37;5.77;;;5.77;;
80115;SDS011;69423;47.608;19.366;2023-05-16T00:25:08;5.47;;;5.47;;
80115;SDS011;69423;47.608;19.366;2023-05-16T00:25:39;5.63;;;5.63;;
80115;SDS011;69423;47.608;19.366;2023-05-16T00:26:10;5.83;;;5.83;;
80115;SDS011;69423;47.608;19.366;2023-05-16T00:26:41;5.63;;;5.63;;
80115;SDS011;69423;47.608;19.366;2023-05-16T00:27:12;6.20;;;6.20;;
80115;SDS011;69423;47.608;19.366;2023-05-16T00:27:43;5.97;;;5.97;;
80115;SDS011;69423;47.608;19.366;2023-05-16T00:28:14;5.93;;;5.93;;
80115;SDS011;69423;47.608;19.366;2023-05-16T00:28:45;6.37;;;6.37;;
80115;SDS011;69423;47.608;19.366;2023-05-16T00:29:15;6.23;;;6.23;;
80115;SDS011;69423;47.608;19.366;2023-05-16T00:29:46;5.80;;;5.80;;
80115;SDS011;69423;47.608;19.366;2023-05-16T00:30:17;6.30;;;6.30;;
80115;SDS011;69423;47.608;19.366;2023-05-16T00:30:49;5.60;;;5.60;;
80115;SDS011;69423;47.608;19.366;2023-05-16T00:31:19;6.17;;;6.17;;
80115;SDS011;69423;47.608;19.366;2023-05-16T00:31:50;5.67;;;5.67;;
80115;SDS011;69423;47.608;19.366;2023-05-16T00:32:21;5.67;;;5.67;;
80115;SDS011;69423;47.608;19.366;2023-05-16T00:32:53;5.93;;;5.93;;
80115;SDS011;69423;47.608;19.366;2023-05-16T00:33:25;5.77;;;5.77;;
80115;SDS011;69423;47.608;19.366;2023-05-16T00:33:56;5.53;;;5.53;;
80115;SDS011;69423;47.608;19.366;2023-05-16T00:34:26;5.57;;;5.57;;
80115;SDS011;69423;47.608;19.366;2023-05-16T00:34:57;5.23;;;5.23;;
80115;SDS011;69423;47.608;19.366;2023-05-16T00:35:28;5.23;;;5.23;;
80115;SDS011;69423;47.608;19.366;2023-05-16T00:35:59;5.63;;;5.60;;
80115;SDS011;69423;47.608;19.366;2023-05-16T00:36:30;5.17;;;5.17;;
80115;SDS011;69423;47.608;19.366;2023-05-16T00:37:01;5.40;;;5.40;;
80115;SDS011;69423;47.608;19.366;2023-05-16T00:37:32;5.53;;;5.53;;
80115;SDS011;69423;47.608;19.366;2023-05-16T00:38:03;5.50;;;5.50;;
80115;SDS011;69423;47.608;19.366;2023-05-16T00:38:34;5.33;;;5.33;;
80115;SDS011;69423;47.608;19.366;2023-05-16T00:39:05;5.03;;;5.03;;
80115;SDS011;69423;47.608;19.366;2023-05-16T00:39:36;5.17;;;5.17;;
80115;SDS011;69423;47.608;19.366;2023-05-16T00:40:06;5.13;;;5.13;;
80115;SDS011;69423;47.608;19.366;2023-05-16T00:40:38;4.90;;;4.90;;
80115;SDS011;69423;47.608;19.366;2023-05-16T00:41:08;4.37;;;4.37;;
80115;SDS011;69423;47.608;19.366;2023-05-16T00:41:39;4.70;;;4.70;;
80115;SDS011;69423;47.608;19.366;2023-05-16T00:42:11;4.97;;;4.97;;
80115;SDS011;69423;47.608;19.366;2023-05-16T00:42:42;4.60;;;4.60;;
80115;SDS011;69423;47.608;19.366;2023-05-16T00:43:12;4.97;;;4.97;;
80115;SDS011;69423;47.608;19.366;2023-05-16T00:43:43;5.07;;;5.07;;
80115;SDS011;69423;47.608;19.366;2023-05-16T00:44:14;4.93;;;4.93;;
80115;SDS011;69423;47.608;19.366;2023-05-16T00:44:46;5.00;;;5.00;;
80115;SDS011;69423;47.608;19.366;2023-05-16T00:45:17;4.70;;;4.70;;
80115;SDS011;69423;47.608;19.366;2023-05-16T00:45:48;4.57;;;4.57;;
80115;SDS011;69423;47.608;19.366;2023-05-16T00:46:19;4.87;;;4.87;;
80115;SDS011;69423;47.608;19.366;2023-05-16T00:46:50;5.13;;;5.13;;
80115;SDS011;69423;47.608;19.366;2023-05-16T00:47:21;5.07;;;5.07;;
80115;SDS011;69423;47.608;19.366;2023-05-16T00:47:52;5.13;;;5.13;;
80115;SDS011;69423;47.608;19.366;2023-05-16T00:48:24;5.37;;;5.37;;
80115;SDS011;69423;47.608;19.366;2023-05-16T00:48:55;5.43;;;5.43;;
80115;SDS011;69423;47.608;19.366;2023-05-16T00:49:26;4.70;;;4.70;;
80115;SDS011;69423;47.608;19.366;2023-05-16T00:49:57;4.63;;;4.63;;
80115;SDS011;69423;47.608;19.366;2023-05-16T00:50:28;5.37;;;5.37;;
80115;SDS011;69423;47.608;19.366;2023-05-16T00:50:59;5.30;;;5.30;;
80115;SDS011;69423;47.608;19.366;2023-05-16T00:51:31;5.67;;;5.67;;
80115;SDS011;69423;47.608;19.366;2023-05-16T00:52:02;5.37;;;5.37;;
80115;SDS011;69423;47.608;19.366;2023-05-16T00:52:34;5.40;;;5.40;;
80115;SDS011;69423;47.608;19.366;2023-05-16T00:53:05;5.73;;;5.73;;
80115;SDS011;69423;47.608;19.366;2023-05-16T00:53:36;5.87;;;5.87;;
80115;SDS011;69423;47.608;19.366;2023-05-16T00:54:07;5.40;;;5.40;;
80115;SDS011;69423;47.608;19.366;2023-05-16T00:54:38;5.40;;;5.40;;
80115;SDS011;69423;47.608;19.366;2023-05-16T00:55:09;5.80;;;5.80;;
80115;SDS011;69423;47.608;19.366;2023-05-16T00:55:41;5.47;;;5.47;;
80115;SDS011;69423;47.608;19.366;2023-05-16T00:56:12;5.60;;;5.60;;
80115;SDS011;69423;47.608;19.366;2023-05-16T00:56:43;5.73;;;5.73;;
80115;SDS011;69423;47.608;19.366;2023-05-16T00:57:14;6.17;;;6.17;;
80115;SDS011;69423;47.608;19.366;2023-05-16T00:57:45;6.07;;;6.07;;
80115;SDS011;69423;47.608;19.366;2023-05-16T00:58:16;6.03;;;6.03;;
80115;SDS011;69423;47.608;19.366;2023-05-16T00:58:47;6.47;;;6.47;;
80115;SDS011;69423;47.608;19.366;2023-05-16T00:59:19;6.87;;;6.87;;
80115;SDS011;69423;47.608;19.366;2023-05-16T00:59:50;6.50;;;6.50;;
80115;SDS011;69423;47.608;19.366;2023-05-16T01:00:22;6.37;;;6.37;;
80115;SDS011;69423;47.608;19.366;2023-05-16T01:00:52;6.10;;;6.10;;
80115;SDS011;69423;47.608;19.366;2023-05-16T01:01:24;6.30;;;6.30;;
80115;SDS011;69423;47.608;19.366;2023-05-16T01:01:56;6.77;;;6.77;;
80115;SDS011;69423;47.608;19.366;2023-05-16T01:02:27;6.67;;;6.67;;
80115;SDS011;69423;47.608;19.366;2023-05-16T01:02:58;6.77;;;6.77;;
80115;SDS011;69423;47.608;19.366;2023-05-16T01:03:29;6.63;;;6.63;;
80115;SDS011;69423;47.608;19.366;2023-05-16T01:04:00;6.57;;;6.57;;
80115;SDS011;69423;47.608;19.366;2023-05-16T01:04:31;6.47;;;6.47;;
80115;SDS011;69423;47.608;19.366;2023-05-16T01:05:03;6.07;;;6.07;;
80115;SDS011;69423;47.608;19.366;2023-05-16T01:05:40;6.30;;;6.30;;
80115;SDS011;69423;47.608;19.366;2023-05-16T01:06:11;7.07;;;7.07;;
80115;SDS011;69423;47.608;19.366;2023-05-16T01:06:42;7.17;;;7.17;;
80115;SDS011;69423;47.608;19.366;2023-05-16T01:07:13;6.80;;;6.80;;
80115;SDS011;69423;47.608;19.366;2023-05-16T01:07:44;6.57;;;6.57;;
80115;SDS011;69423;47.608;19.366;2023-05-16T01:08:15;6.27;;;6.27;;
80115;SDS011;69423;47.608;19.366;2023-05-16T01:08:46;7.10;;;7.10;;
80115;SDS011;69423;47.608;19.366;2023-05-16T01:09:17;7.23;;;7.23;;
80115;SDS011;69423;47.608;19.366;2023-05-16T01:09:48;6.80;;;6.80;;
80115;SDS011;69423;47.608;19.366;2023-05-16T01:10:19;6.57;;;6.57;;
80115;SDS011;69423;47.608;19.366;2023-05-16T01:12:56;7.17;;;7.17;;
80115;SDS011;69423;47.608;19.366;2023-05-16T01:16:41;7.43;;;7.43;;
80115;SDS011;69423;47.608;19.366;2023-05-16T01:18:24;6.37;;;6.37;;
80115;SDS011;69423;47.608;19.366;2023-05-16T01:20:02;6.93;;;6.93;;
80115;SDS011;69423;47.608;19.366;2023-05-16T01:20:58;7.27;;;7.27;;
80115;SDS011;69423;47.608;19.366;2023-05-16T01:22:19;7.23;;;7.23;;
80115;SDS011;69423;47.608;19.366;2023-05-16T01:25:37;7.43;;;7.43;;
80115;SDS011;69423;47.608;19.366;2023-05-16T01:26:25;7.90;;;7.90;;
80115;SDS011;69423;47.608;19.366;2023-05-16T01:26:58;7.97;;;7.97;;
80115;SDS011;69423;47.608;19.366;2023-05-16T01:27:29;7.37;;;7.37;;
80115;SDS011;69423;47.608;19.366;2023-05-16T01:28:01;7.33;;;7.33;;
80115;SDS011;69423;47.608;19.366;2023-05-16T01:28:33;7.40;;;7.40;;
80115;SDS011;69423;47.608;19.366;2023-05-16T01:29:04;7.67;;;7.67;;
80115;SDS011;69423;47.608;19.366;2023-05-16T01:29:36;7.83;;;7.83;;
80115;SDS011;69423;47.608;19.366;2023-05-16T01:30:14;8.07;;;8.07;;
80115;SDS011;69423;47.608;19.366;2023-05-16T01:30:47;7.50;;;7.50;;
80115;SDS011;69423;47.608;19.366;2023-05-16T01:31:21;7.63;;;7.63;;
80115;SDS011;69423;47.608;19.366;2023-05-16T01:31:53;7.87;;;7.87;;
80115;SDS011;69423;47.608;19.366;2023-05-16T01:32:24;7.40;;;7.40;;
80115;SDS011;69423;47.608;19.366;2023-05-16T01:32:55;7.70;;;7.70;;
80115;SDS011;69423;47.608;19.366;2023-05-16T01:33:26;8.10;;;8.10;;
80115;SDS011;69423;47.608;19.366;2023-05-16T01:33:56;7.37;;;7.37;;
80115;SDS011;69423;47.608;19.366;2023-05-16T01:34:27;7.83;;;7.83;;
80115;SDS011;69423;47.608;19.366;2023-05-16T01:34:58;7.80;;;7.80;;
80115;SDS011;69423;47.608;19.366;2023-05-16T01:35:29;8.40;;;8.40;;
80115;SDS011;69423;47.608;19.366;2023-05-16T01:36:03;8.33;;;8.33;;
80115;SDS011;69423;47.608;19.366;2023-05-16T01:36:46;7.77;;;7.77;;
80115;SDS011;69423;47.608;19.366;2023-05-16T01:37:28;7.57;;;7.57;;
80115;SDS011;69423;47.608;19.366;2023-05-16T01:41:18;7.57;;;7.57;;
80115;SDS011;69423;47.608;19.366;2023-05-16T01:42:04;8.20;;;8.20;;
80115;SDS011;69423;47.608;19.366;2023-05-16T01:42:41;7.57;;;7.57;;
80115;SDS011;69423;47.608;19.366;2023-05-16T01:43:16;8.10;;;8.10;;
80115;SDS011;69423;47.608;19.366;2023-05-16T01:44:02;8.30;;;8.30;;
80115;SDS011;69423;47.608;19.366;2023-05-16T01:44:50;7.80;;;7.80;;
80115;SDS011;69423;47.608;19.366;2023-05-16T01:45:30;7.80;;;7.80;;
80115;SDS011;69423;47.608;19.366;2023-05-16T01:46:08;8.13;;;8.13;;
80115;SDS011;69423;47.608;19.366;2023-05-16T01:46:45;7.63;;;7.63;;
80115;SDS011;69423;47.608;19.366;2023-05-16T01:47:18;7.70;;;7.70;;
80115;SDS011;69423;47.608;19.366;2023-05-16T01:47:55;7.47;;;7.47;;
80115;SDS011;69423;47.608;19.366;2023-05-16T01:48:46;7.47;;;7.47;;
80115;SDS011;69423;47.608;19.366;2023-05-16T01:50:12;7.73;;;7.73;;
80115;SDS011;69423;47.608;19.366;2023-05-16T01:50:46;7.87;;;7.87;;
80115;SDS011;69423;47.608;19.366;2023-05-16T01:51:21;7.93;;;7.93;;
80115;SDS011;69423;47.608;19.366;2023-05-16T01:51:59;7.63;;;7.63;;
80115;SDS011;69423;47.608;19.366;2023-05-16T01:52:37;7.53;;;7.53;;
80115;SDS011;69423;47.608;19.366;2023-05-16T01:53:36;7.87;;;7.87;;
80115;SDS011;69423;47.608;19.366;2023-05-16T01:54:10;7.40;;;7.40;;
80115;SDS011;69423;47.608;19.366;2023-05-16T01:54:44;7.77;;;7.77;;
80115;SDS011;69423;47.608;19.366;2023-05-16T01:55:22;7.93;;;7.93;;
80115;SDS011;69423;47.608;19.366;2023-05-16T01:56:00;8.10;;;8.10;;
80115;SDS011;69423;47.608;19.366;2023-05-16T01:56:32;7.73;;;7.73;;
80115;SDS011;69423;47.608;19.366;2023-05-16T01:57:06;7.60;;;7.60;;
80115;SDS011;69423;47.608;19.366;2023-05-16T01:57:39;7.47;;;7.47;;
80115;SDS011;69423;47.608;19.366;2023-05-16T01:58:13;7.50;;;7.50;;
80115;SDS011;69423;47.608;19.366;2023-05-16T01:58:46;7.57;;;7.57;;
80115;SDS011;69423;47.608;19.366;2023-05-16T01:59:22;7.47;;;7.47;;
80115;SDS011;69423;47.608;19.366;2023-05-16T01:59:55;8.17;;;8.17;;
80115;SDS011;69423;47.608;19.366;2023-05-16T02:00:28;7.67;;;7.67;;
80115;SDS011;69423;47.608;19.366;2023-05-16T02:00:59;8.03;;;8.03;;
80115;SDS011;69423;47.608;19.366;2023-05-16T02:01:33;8.67;;;8.67;;
80115;SDS011;69423;47.608;19.366;2023-05-16T02:02:04;8.30;;;8.30;;
80115;SDS011;69423;47.608;19.366;2023-05-16T02:02:35;7.70;;;7.70;;
80115;SDS011;69423;47.608;19.366;2023-05-16T02:03:06;8.50;;;8.50;;
80115;SDS011;69423;47.608;19.366;2023-05-16T02:03:38;8.53;;;8.53;;
80115;SDS011;69423;47.608;19.366;2023-05-16T02:04:09;9.27;;;9.27;;
80115;SDS011;69423;47.608;19.366;2023-05-16T02:04:40;8.50;;;8.50;;
80115;SDS011;69423;47.608;19.366;2023-05-16T02:05:11;8.47;;;8.43;;
80115;SDS011;69423;47.608;19.366;2023-05-16T02:05:42;8.37;;;8.30;;
80115;SDS011;69423;47.608;19.366;2023-05-16T02:06:13;9.07;;;8.97;;
80115;SDS011;69423;47.608;19.366;2023-05-16T02:06:43;9.67;;;9.30;;
80115;SDS011;69423;47.608;19.366;2023-05-16T02:07:15;9.10;;;9.00;;
80115;SDS011;69423;47.608;19.366;2023-05-16T02:07:46;9.53;;;9.33;;
80115;SDS011;69423;47.608;19.366;2023-05-16T02:08:18;8.73;;;8.63;;
80115;SDS011;69423;47.608;19.366;2023-05-16T02:08:49;8.23;;;8.23;;
80115;SDS011;69423;47.608;19.366;2023-05-16T02:09:20;8.83;;;8.83;;
80115;SDS011;69423;47.608;19.366;2023-05-16T02:09:51;9.07;;;9.07;;
80115;SDS011;69423;47.608;19.366;2023-05-16T02:10:22;8.63;;;8.63;;
80115;SDS011;69423;47.608;19.366;2023-05-16T02:10:54;8.70;;;8.70;;
80115;SDS011;69423;47.608;19.366;2023-05-16T02:11:25;8.63;;;8.63;;
80115;SDS011;69423;47.608;19.366;2023-05-16T02:11:56;8.30;;;8.30;;
80115;SDS011;69423;47.608;19.366;2023-05-16T02:12:26;8.33;;;8.33;;
80115;SDS011;69423;47.608;19.366;2023-05-16T02:12:57;7.93;;;7.83;;
80115;SDS011;69423;47.608;19.366;2023-05-16T02:13:28;8.23;;;7.93;;
80115;SDS011;69423;47.608;19.366;2023-05-16T02:13:59;8.00;;;7.67;;
80115;SDS011;69423;47.608;19.366;2023-05-16T02:14:30;8.33;;;8.17;;
80115;SDS011;69423;47.608;19.366;2023-05-16T02:15:01;7.57;;;7.57;;
80115;SDS011;69423;47.608;19.366;2023-05-16T02:15:31;7.17;;;7.17;;
80115;SDS011;69423;47.608;19.366;2023-05-16T02:16:02;7.80;;;7.80;;
80115;SDS011;69423;47.608;19.366;2023-05-16T02:16:33;8.13;;;7.90;;
80115;SDS011;69423;47.608;19.366;2023-05-16T02:17:04;8.23;;;7.93;;
80115;SDS011;69423;47.608;19.366;2023-05-16T02:17:35;8.50;;;8.30;;
80115;SDS011;69423;47.608;19.366;2023-05-16T02:18:06;8.60;;;8.60;;
80115;SDS011;69423;47.608;19.366;2023-05-16T02:18:38;9.23;;;9.23;;
80115;SDS011;69423;47.608;19.366;2023-05-16T02:19:09;9.27;;;9.20;;
80115;SDS011;69423;47.608;19.366;2023-05-16T02:19:40;9.67;;;9.40;;
80115;SDS011;69423;47.608;19.366;2023-05-16T02:20:11;8.80;;;8.50;;
80115;SDS011;69423;47.608;19.366;2023-05-16T02:20:43;8.67;;;8.63;;
80115;SDS011;69423;47.608;19.366;2023-05-16T02:21:13;9.43;;;9.23;;
80115;SDS011;69423;47.608;19.366;2023-05-16T02:21:44;8.90;;;8.53;;
80115;SDS011;69423;47.608;19.366;2023-05-16T02:22:15;8.53;;;8.40;;
80115;SDS011;69423;47.608;19.366;2023-05-16T02:22:46;8.30;;;8.30;;
80115;SDS011;69423;47.608;19.366;2023-05-16T02:23:19;8.67;;;8.60;;
80115;SDS011;69423;47.608;19.366;2023-05-16T02:23:50;8.67;;;8.40;;
80115;SDS011;69423;47.608;19.366;2023-05-16T02:24:21;9.30;;;8.83;;
80115;SDS011;69423;47.608;19.366;2023-05-16T02:24:52;9.27;;;8.80;;
80115;SDS011;69423;47.608;19.366;2023-05-16T02:25:23;9.30;;;8.90;;
80115;SDS011;69423;47.608;19.366;2023-05-16T02:25:54;8.73;;;8.73;;
80115;SDS011;69423;47.608;19.366;2023-05-16T02:26:25;8.50;;;8.33;;
80115;SDS011;69423;47.608;19.366;2023-05-16T02:26:55;8.27;;;8.20;;
80115;SDS011;69423;47.608;19.366;2023-05-16T02:27:26;8.83;;;8.83;;
80115;SDS011;69423;47.608;19.366;2023-05-16T02:27:57;8.20;;;8.20;;
80115;SDS011;69423;47.608;19.366;2023-05-16T02:28:28;8.43;;;8.43;;
80115;SDS011;69423;47.608;19.366;2023-05-16T02:28:59;8.13;;;8.07;;
80115;SDS011;69423;47.608;19.366;2023-05-16T02:29:30;7.47;;;7.37;;
80115;SDS011;69423;47.608;19.366;2023-05-16T02:30:01;7.90;;;7.90;;
80115;SDS011;69423;47.608;19.366;2023-05-16T02:30:32;7.73;;;7.73;;
80115;SDS011;69423;47.608;19.366;2023-05-16T02:31:03;7.93;;;7.93;;
80115;SDS011;69423;47.608;19.366;2023-05-16T02:31:34;8.07;;;7.77;;
80115;SDS011;69423;47.608;19.366;2023-05-16T02:32:05;8.17;;;7.73;;
80115;SDS011;69423;47.608;19.366;2023-05-16T02:32:37;8.13;;;7.77;;
80115;SDS011;69423;47.608;19.366;2023-05-16T02:33:10;8.03;;;7.93;;
80115;SDS011;69423;47.608;19.366;2023-05-16T02:33:41;8.00;;;8.00;;
80115;SDS011;69423;47.608;19.366;2023-05-16T02:34:12;7.77;;;7.77;;
80115;SDS011;69423;47.608;19.366;2023-05-16T02:34:42;7.90;;;7.90;;
80115;SDS011;69423;47.608;19.366;2023-05-16T02:35:13;7.73;;;7.73;;
80115;SDS011;69423;47.608;19.366;2023-05-16T02:35:45;7.67;;;7.67;;
80115;SDS011;69423;47.608;19.366;2023-05-16T02:36:16;7.53;;;7.50;;
80115;SDS011;69423;47.608;19.366;2023-05-16T02:36:46;8.00;;;7.73;;
80115;SDS011;69423;47.608;19.366;2023-05-16T02:37:17;8.50;;;8.13;;
80115;SDS011;69423;47.608;19.366;2023-05-16T02:37:48;7.97;;;7.70;;
80115;SDS011;69423;47.608;19.366;2023-05-16T02:38:19;7.47;;;7.47;;
80115;SDS011;69423;47.608;19.366;2023-05-16T02:38:50;7.87;;;7.70;;
80115;SDS011;69423;47.608;19.366;2023-05-16T02:39:21;8.30;;;7.90;;
80115;SDS011;69423;47.608;19.366;2023-05-16T02:39:52;9.10;;;8.93;;
80115;SDS011;69423;47.608;19.366;2023-05-16T02:40:23;8.33;;;8.33;;
80115;SDS011;69423;47.608;19.366;2023-05-16T02:40:54;8.23;;;8.23;;
80115;SDS011;69423;47.608;19.366;2023-05-16T02:41:25;7.83;;;7.83;;
80115;SDS011;69423;47.608;19.366;2023-05-16T02:41:56;8.37;;;8.37;;
80115;SDS011;69423;47.608;19.366;2023-05-16T02:42:27;8.43;;;8.43;;
80115;SDS011;69423;47.608;19.366;2023-05-16T02:42:58;8.53;;;8.53;;
80115;SDS011;69423;47.608;19.366;2023-05-16T02:43:29;8.43;;;8.43;;
80115;SDS011;69423;47.608;19.366;2023-05-16T02:44:00;8.23;;;8.23;;
80115;SDS011;69423;47.608;19.366;2023-05-16T02:44:31;8.23;;;8.23;;
80115;SDS011;69423;47.608;19.366;2023-05-16T02:45:02;8.13;;;8.13;;
80115;SDS011;69423;47.608;19.366;2023-05-16T02:45:33;8.23;;;8.00;;
80115;SDS011;69423;47.608;19.366;2023-05-16T02:46:05;8.67;;;8.27;;
80115;SDS011;69423;47.608;19.366;2023-05-16T02:46:57;8.60;;;8.20;;
80115;SDS011;69423;47.608;19.366;2023-05-16T02:47:28;8.43;;;8.10;;
80115;SDS011;69423;47.608;19.366;2023-05-16T02:47:58;7.27;;;7.23;;
80115;SDS011;69423;47.608;19.366;2023-05-16T02:48:29;7.30;;;7.30;;
80115;SDS011;69423;47.608;19.366;2023-05-16T02:49:01;6.90;;;6.87;;
80115;SDS011;69423;47.608;19.366;2023-05-16T02:49:33;7.73;;;7.47;;
80115;SDS011;69423;47.608;19.366;2023-05-16T02:50:04;7.87;;;7.67;;
80115;SDS011;69423;47.608;19.366;2023-05-16T02:50:36;8.60;;;8.23;;
80115;SDS011;69423;47.608;19.366;2023-05-16T02:51:07;7.93;;;7.67;;
80115;SDS011;69423;47.608;19.366;2023-05-16T02:51:38;8.17;;;7.90;;
80115;SDS011;69423;47.608;19.366;2023-05-16T02:52:08;6.90;;;6.83;;
80115;SDS011;69423;47.608;19.366;2023-05-16T02:52:39;7.00;;;7.00;;
80115;SDS011;69423;47.608;19.366;2023-05-16T02:53:10;7.17;;;7.17;;
80115;SDS011;69423;47.608;19.366;2023-05-16T02:53:41;7.03;;;7.03;;
80115;SDS011;69423;47.608;19.366;2023-05-16T02:54:12;7.03;;;7.03;;
80115;SDS011;69423;47.608;19.366;2023-05-16T02:54:43;7.00;;;7.00;;
80115;SDS011;69423;47.608;19.366;2023-05-16T02:55:14;6.43;;;6.43;;
80115;SDS011;69423;47.608;19.366;2023-05-16T02:55:45;6.87;;;6.87;;
80115;SDS011;69423;47.608;19.366;2023-05-16T02:56:16;6.87;;;6.87;;
80115;SDS011;69423;47.608;19.366;2023-05-16T02:56:48;6.97;;;6.97;;
80115;SDS011;69423;47.608;19.366;2023-05-16T02:57:19;6.60;;;6.60;;
80115;SDS011;69423;47.608;19.366;2023-05-16T02:57:50;6.73;;;6.73;;
80115;SDS011;69423;47.608;19.366;2023-05-16T02:58:21;7.00;;;7.00;;
80115;SDS011;69423;47.608;19.366;2023-05-16T02:58:53;6.73;;;6.73;;
80115;SDS011;69423;47.608;19.366;2023-05-16T02:59:25;6.57;;;6.53;;
80115;SDS011;69423;47.608;19.366;2023-05-16T02:59:56;7.00;;;6.80;;
80115;SDS011;69423;47.608;19.366;2023-05-16T03:00:27;7.00;;;6.83;;
80115;SDS011;69423;47.608;19.366;2023-05-16T03:00:59;6.57;;;6.57;;
80115;SDS011;69423;47.608;19.366;2023-05-16T03:01:30;6.47;;;6.47;;
80115;SDS011;69423;47.608;19.366;2023-05-16T03:02:01;6.73;;;6.73;;
80115;SDS011;69423;47.608;19.366;2023-05-16T03:02:32;7.07;;;7.07;;
80115;SDS011;69423;47.608;19.366;2023-05-16T03:03:02;6.77;;;6.77;;
80115;SDS011;69423;47.608;19.366;2023-05-16T03:03:34;7.07;;;7.07;;
80115;SDS011;69423;47.608;19.366;2023-05-16T03:04:06;6.77;;;6.77;;
80115;SDS011;69423;47.608;19.366;2023-05-16T03:04:37;6.93;;;6.80;;
80115;SDS011;69423;47.608;19.366;2023-05-16T03:05:08;7.30;;;7.13;;
80115;SDS011;69423;47.608;19.366;2023-05-16T03:05:39;7.20;;;7.10;;
80115;SDS011;69423;47.608;19.366;2023-05-16T03:06:10;6.93;;;6.90;;
80115;SDS011;69423;47.608;19.366;2023-05-16T03:06:41;7.00;;;6.97;;
80115;SDS011;69423;47.608;19.366;2023-05-16T03:07:12;6.80;;;6.73;;
80115;SDS011;69423;47.608;19.366;2023-05-16T03:07:43;7.20;;;7.20;;
80115;SDS011;69423;47.608;19.366;2023-05-16T03:08:14;6.83;;;6.83;;
80115;SDS011;69423;47.608;19.366;2023-05-16T03:08:45;6.87;;;6.87;;
80115;SDS011;69423;47.608;19.366;2023-05-16T03:09:16;7.33;;;7.33;;
80115;SDS011;69423;47.608;19.366;2023-05-16T03:09:47;7.40;;;7.40;;
80115;SDS011;69423;47.608;19.366;2023-05-16T03:10:18;7.17;;;7.17;;
80115;SDS011;69423;47.608;19.366;2023-05-16T03:10:49;7.07;;;7.07;;
80115;SDS011;69423;47.608;19.366;2023-05-16T03:11:20;7.60;;;7.50;;
80115;SDS011;69423;47.608;19.366;2023-05-16T03:11:52;8.03;;;7.80;;
80115;SDS011;69423;47.608;19.366;2023-05-16T03:12:23;7.43;;;7.40;;
80115;SDS011;69423;47.608;19.366;2023-05-16T03:12:53;7.37;;;7.37;;
80115;SDS011;69423;47.608;19.366;2023-05-16T03:13:24;6.53;;;6.53;;
80115;SDS011;69423;47.608;19.366;2023-05-16T03:13:55;6.80;;;6.80;;
80115;SDS011;69423;47.608;19.366;2023-05-16T03:14:26;7.07;;;7.07;;
80115;SDS011;69423;47.608;19.366;2023-05-16T03:14:57;7.20;;;7.20;;
80115;SDS011;69423;47.608;19.366;2023-05-16T03:15:28;7.70;;;7.70;;
80115;SDS011;69423;47.608;19.366;2023-05-16T03:15:59;6.97;;;6.97;;
80115;SDS011;69423;47.608;19.366;2023-05-16T03:16:30;7.10;;;7.10;;
80115;SDS011;69423;47.608;19.366;2023-05-16T03:17:01;8.00;;;8.00;;
80115;SDS011;69423;47.608;19.366;2023-05-16T03:17:32;8.60;;;8.40;;
80115;SDS011;69423;47.608;19.366;2023-05-16T03:18:03;7.90;;;7.83;;
80115;SDS011;69423;47.608;19.366;2023-05-16T03:18:34;7.47;;;7.43;;
80115;SDS011;69423;47.608;19.366;2023-05-16T03:19:05;7.53;;;7.30;;
80115;SDS011;69423;47.608;19.366;2023-05-16T03:19:35;6.63;;;6.60;;
80115;SDS011;69423;47.608;19.366;2023-05-16T03:20:06;6.53;;;6.53;;
80115;SDS011;69423;47.608;19.366;2023-05-16T03:20:38;6.60;;;6.60;;
80115;SDS011;69423;47.608;19.366;2023-05-16T03:21:09;7.10;;;7.10;;
80115;SDS011;69423;47.608;19.366;2023-05-16T03:21:40;6.70;;;6.70;;
80115;SDS011;69423;47.608;19.366;2023-05-16T03:22:11;6.57;;;6.57;;
80115;SDS011;69423;47.608;19.366;2023-05-16T03:22:42;7.23;;;7.17;;
80115;SDS011;69423;47.608;19.366;2023-05-16T03:23:14;6.93;;;6.93;;
80115;SDS011;69423;47.608;19.366;2023-05-16T03:23:45;6.97;;;6.97;;
80115;SDS011;69423;47.608;19.366;2023-05-16T03:24:16;7.47;;;7.33;;
80115;SDS011;69423;47.608;19.366;2023-05-16T03:24:47;7.23;;;7.17;;
80115;SDS011;69423;47.608;19.366;2023-05-16T03:25:18;6.87;;;6.87;;